createdAt,value
2019-03-24T00:01:17.510Z,36.65
2019-03-24T00:06:23.186Z,36.47
2019-03-24T00:11:29.488Z,36.25
2019-03-24T00:16:36.550Z,39.10
2019-03-24T00:21:42.324Z,42.33
2019-03-24T00:26:47.998Z,41.40
2019-03-24T00:31:53.695Z,43.00
2019-03-24T00:37:00.564Z,40.30
2019-03-24T00:42:06.732Z,36.88
2019-03-24T00:47:12.842Z,36.45
2019-03-24T00:52:19.367Z,38.40
2019-03-24T00:57:24.965Z,35.90
2019-03-24T01:02:31.290Z,37.40
2019-03-24T01:07:37.585Z,36.00
2019-03-24T01:12:43.724Z,36.00
2019-03-24T01:17:49.423Z,37.37
2019-03-24T01:22:55.312Z,37.85
2019-03-24T01:28:00.994Z,36.27
2019-03-24T01:33:06.786Z,35.05
2019-03-24T01:38:12.466Z,39.43
2019-03-24T01:43:18.580Z,40.58
2019-03-24T01:48:24.504Z,41.13
2019-03-24T01:53:30.371Z,42.17
2019-03-24T01:58:37.561Z,42.38
2019-03-24T02:03:44.398Z,42.67
2019-03-24T02:08:50.449Z,42.75
2019-03-24T02:13:56.417Z,45.73
2019-03-24T02:19:03.005Z,45.28
2019-03-24T02:24:09.123Z,45.90
2019-03-24T02:29:14.821Z,46.63
2019-03-24T02:34:20.968Z,43.95
2019-03-24T02:39:26.724Z,43.45
2019-03-24T02:44:32.536Z,44.70
2019-03-24T02:49:38.695Z,46.83
2019-03-24T02:54:44.686Z,46.28
2019-03-24T02:59:50.800Z,42.67
2019-03-24T03:04:56.583Z,42.85
2019-03-24T03:10:03.199Z,42.78
2019-03-24T03:15:11.166Z,40.47
2019-03-24T03:20:17.402Z,39.97
2019-03-24T03:25:23.348Z,34.30
2019-03-24T03:30:29.051Z,33.83
2019-03-24T03:35:34.923Z,31.82
2019-03-24T03:40:40.714Z,27.10
2019-03-24T03:45:46.646Z,24.07
2019-03-24T03:50:52.404Z,21.73
2019-03-24T03:55:58.099Z,19.93
2019-03-24T04:01:05.000Z,19.60
2019-03-24T04:06:10.691Z,17.50
2019-03-24T04:11:16.386Z,16.67
2019-03-24T04:16:22.445Z,15.33
2019-03-24T04:21:28.555Z,14.13
2019-03-24T04:26:34.352Z,13.60
2019-03-24T04:31:40.478Z,14.37
2019-03-24T04:36:46.267Z,13.27
2019-03-24T04:41:52.723Z,13.90
2019-03-24T04:46:59.464Z,14.28
2019-03-24T04:52:05.372Z,14.00
2019-03-24T04:57:11.254Z,13.98
2019-03-24T05:02:17.418Z,13.50
2019-03-24T05:07:23.893Z,14.68
2019-03-24T05:12:29.986Z,14.47
2019-03-24T05:17:37.162Z,15.03
2019-03-24T05:22:43.238Z,14.33
2019-03-24T05:27:49.132Z,17.37
2019-03-24T05:32:55.342Z,16.20
2019-03-24T05:38:01.031Z,15.50
2019-03-24T05:43:06.846Z,15.07
2019-03-24T05:48:12.740Z,13.97
2019-03-24T05:53:18.525Z,13.87
2019-03-24T05:58:24.619Z,16.07
2019-03-24T06:03:30.542Z,15.60
2019-03-24T06:08:37.164Z,15.10
2019-03-24T06:13:44.193Z,15.60
2019-03-24T06:18:50.090Z,15.17
2019-03-24T06:23:55.784Z,15.67
2019-03-24T06:29:01.898Z,15.63
2019-03-24T06:34:08.062Z,15.90
2019-03-24T06:39:14.247Z,14.60
2019-03-24T06:44:20.024Z,15.90
2019-03-24T06:49:25.918Z,16.17
2019-03-24T06:54:31.622Z,16.07
2019-03-24T06:59:38.295Z,15.57
2019-03-24T07:04:44.154Z,16.07
2019-03-24T07:09:52.589Z,16.60
2019-03-24T07:14:58.892Z,17.45
2019-03-24T07:20:05.484Z,18.62
2019-03-24T07:25:11.629Z,18.67
2019-03-24T07:30:17.725Z,18.23
2019-03-24T07:35:23.778Z,21.17
2019-03-24T07:40:29.612Z,18.90
2019-03-24T07:45:35.493Z,19.70
2019-03-24T07:50:41.732Z,19.10
2019-03-24T07:55:48.072Z,18.77
2019-03-24T08:00:54.234Z,20.10
2019-03-24T08:06:00.015Z,21.27
2019-03-24T08:11:08.543Z,21.77
2019-03-24T08:16:14.353Z,23.67
2019-03-24T08:21:20.604Z,22.70
2019-03-24T08:26:26.479Z,23.83
2019-03-24T08:31:32.837Z,24.82
2019-03-24T08:36:39.360Z,25.30
2019-03-24T08:41:45.118Z,25.70
2019-03-24T08:46:51.013Z,26.40
2019-03-24T08:51:56.799Z,25.47
2019-03-24T08:57:02.623Z,26.93
2019-03-24T09:02:08.859Z,27.00
2019-03-24T09:07:15.311Z,27.97
2019-03-24T09:12:21.214Z,29.45
2019-03-24T09:17:27.034Z,28.38
2019-03-24T09:22:32.862Z,27.15
2019-03-24T09:27:38.647Z,26.93
2019-03-24T09:32:44.605Z,25.23
2019-03-24T09:37:50.774Z,24.33
2019-03-24T09:42:56.884Z,25.97
2019-03-24T09:48:02.996Z,25.92
2019-03-24T09:53:08.794Z,24.92
2019-03-24T09:58:14.571Z,24.15
2019-03-24T10:03:20.362Z,25.88
2019-03-24T10:08:27.262Z,23.12
2019-03-24T10:13:33.139Z,22.17
2019-03-24T10:18:38.921Z,21.68
2019-03-24T10:23:44.697Z,20.17
2019-03-24T10:28:50.489Z,20.50
2019-03-24T10:33:56.574Z,21.02
2019-03-24T10:39:05.351Z,21.45
2019-03-24T10:44:11.140Z,22.37
2019-03-24T10:49:24.817Z,22.05
2019-03-24T10:54:25.969Z,19.70
2019-03-24T10:59:31.790Z,20.97
2019-03-24T11:04:37.846Z,22.57
2019-03-24T11:09:45.190Z,20.97
2019-03-24T11:14:51.641Z,21.30
2019-03-24T11:19:58.475Z,20.20
2019-03-24T11:25:05.006Z,20.95
2019-03-24T11:30:12.671Z,21.10
2019-03-24T11:35:18.491Z,20.60
2019-03-24T11:40:24.485Z,21.55
2019-03-24T11:45:30.458Z,22.27
2019-03-24T11:50:36.362Z,24.75
2019-03-24T11:55:42.503Z,21.30
2019-03-24T12:00:49.103Z,20.72
2019-03-24T12:05:54.985Z,21.80
2019-03-24T12:11:00.838Z,21.17
2019-03-24T12:16:07.913Z,22.87
2019-03-24T12:21:13.804Z,21.68
2019-03-24T12:26:19.590Z,21.17
2019-03-24T12:31:25.468Z,21.70
2019-03-24T12:36:31.638Z,25.50
2019-03-24T12:41:37.435Z,26.12
2019-03-24T12:46:43.211Z,25.72
2019-03-24T12:51:49.982Z,27.67
2019-03-24T12:56:55.780Z,27.73
2019-03-24T13:02:02.410Z,31.77
2019-03-24T13:07:09.608Z,33.45
2019-03-24T13:12:15.393Z,32.75
2019-03-24T13:17:21.537Z,31.90
2019-03-24T13:22:27.650Z,31.25
2019-03-24T13:27:33.815Z,30.77
2019-03-24T13:32:40.867Z,30.10
2019-03-24T13:37:46.649Z,31.50
2019-03-24T13:42:52.877Z,30.00
2019-03-24T13:47:58.783Z,31.17
2019-03-24T13:53:04.962Z,31.33
2019-03-24T13:58:12.253Z,34.03
2019-03-24T14:03:18.139Z,32.85
2019-03-24T14:08:24.325Z,30.75
2019-03-24T14:13:30.117Z,31.85
2019-03-24T14:18:36.395Z,29.92
2019-03-24T14:23:42.515Z,27.97
2019-03-24T14:28:49.118Z,26.73
2019-03-24T14:33:55.321Z,26.40
2019-03-24T14:39:01.117Z,24.70
2019-03-24T14:44:08.582Z,24.30
2019-03-24T14:49:14.375Z,25.65
2019-03-24T14:54:20.486Z,22.65
2019-03-24T14:59:26.558Z,21.50
2019-03-24T15:04:32.442Z,21.25
2019-03-24T15:09:38.332Z,21.10
2019-03-24T15:14:44.128Z,18.85
2019-03-24T15:19:50.251Z,21.62
2019-03-24T15:24:56.263Z,19.60
2019-03-24T15:30:02.417Z,18.65
2019-03-24T15:35:09.622Z,20.10
2019-03-24T15:40:15.534Z,18.10
2019-03-24T15:45:21.742Z,18.70
2019-03-24T15:50:27.764Z,20.10
2019-03-24T15:55:33.458Z,20.20
2019-03-24T16:00:44.304Z,20.27
2019-03-24T16:05:50.189Z,20.70
2019-03-24T16:10:55.997Z,21.15
2019-03-24T16:16:02.884Z,19.32
2019-03-24T16:21:08.951Z,20.17
2019-03-24T16:26:14.746Z,19.55
2019-03-24T16:31:20.599Z,20.60
2019-03-24T16:36:26.524Z,20.60
2019-03-24T16:41:32.309Z,20.43
2019-03-24T16:46:38.103Z,20.12
2019-03-24T16:51:43.912Z,20.00
2019-03-24T16:56:49.944Z,20.85
2019-03-24T17:01:56.376Z,19.93
2019-03-24T17:07:02.144Z,19.63
2019-03-24T17:12:08.261Z,20.32
2019-03-24T17:17:17.119Z,19.87
2019-03-24T17:22:23.675Z,20.33
2019-03-24T17:27:29.869Z,21.37
2019-03-24T17:32:35.654Z,21.68
2019-03-24T17:37:41.813Z,20.23
2019-03-24T17:42:47.719Z,22.40
2019-03-24T17:47:53.436Z,21.10
2019-03-24T17:52:59.130Z,21.90
2019-03-24T17:58:04.978Z,21.65
2019-03-24T18:03:10.668Z,22.00
2019-03-24T18:08:16.457Z,21.80
2019-03-24T18:13:22.506Z,21.60
2019-03-24T18:18:28.274Z,22.47
2019-03-24T18:23:34.397Z,22.65
2019-03-24T18:28:40.113Z,22.40
2019-03-24T18:33:45.740Z,23.10
2019-03-24T18:38:52.678Z,39.47
2019-03-24T18:43:59.097Z,23.17
2019-03-24T18:49:06.034Z,23.18
2019-03-24T18:54:12.537Z,23.33
2019-03-24T18:59:18.602Z,24.23
2019-03-24T19:04:24.406Z,23.20
2019-03-24T19:09:30.105Z,23.37
2019-03-24T19:14:36.231Z,26.60
2019-03-24T19:19:43.391Z,26.20
2019-03-24T19:24:49.088Z,28.57
2019-03-24T19:29:55.177Z,27.03
2019-03-24T19:35:02.087Z,25.93
2019-03-24T19:40:13.705Z,27.23
2019-03-24T19:45:19.577Z,26.77
2019-03-24T19:50:26.765Z,27.57
2019-03-24T19:55:34.661Z,27.07
2019-03-24T20:00:40.812Z,26.40
2019-03-24T20:05:46.521Z,26.17
2019-03-24T20:10:52.631Z,26.30
2019-03-24T20:15:58.554Z,27.70
2019-03-24T20:21:04.731Z,26.67
2019-03-24T20:26:10.734Z,23.97
2019-03-24T20:31:16.898Z,25.30
2019-03-24T20:36:22.757Z,27.40
2019-03-24T20:41:29.385Z,30.03
2019-03-24T20:46:35.849Z,34.07
2019-03-24T20:51:41.699Z,33.73
2019-03-24T20:56:47.706Z,32.17
2019-03-24T21:01:53.411Z,31.03
2019-03-24T21:06:59.115Z,33.17
2019-03-24T21:12:04.985Z,30.70
2019-03-24T21:17:11.049Z,31.43
2019-03-24T21:22:16.820Z,26.73
2019-03-24T21:27:22.903Z,26.57
2019-03-24T21:32:28.775Z,26.47
2019-03-24T21:37:34.517Z,26.13
2019-03-24T21:42:40.346Z,27.00
2019-03-24T21:47:46.739Z,26.10
2019-03-24T21:52:52.481Z,26.83
2019-03-24T21:57:59.601Z,26.80
2019-03-24T22:03:06.492Z,27.10
2019-03-24T22:08:12.959Z,26.50
2019-03-24T22:13:18.650Z,29.20
2019-03-24T22:18:24.791Z,29.17
2019-03-24T22:23:30.554Z,32.90
2019-03-24T22:28:36.339Z,32.90
2019-03-24T22:33:42.093Z,29.37
2019-03-24T22:38:47.892Z,32.10
2019-03-24T22:43:53.613Z,32.87
2019-03-24T22:48:59.318Z,31.73
2019-03-24T22:54:06.101Z,29.67
2019-03-24T22:59:11.807Z,29.93
2019-03-24T23:04:18.165Z,31.80
2019-03-24T23:09:23.864Z,30.70
2019-03-24T23:14:29.558Z,27.97
2019-03-24T23:19:35.256Z,26.60
2019-03-24T23:24:41.286Z,23.83
2019-03-24T23:29:47.070Z,24.33
2019-03-24T23:34:52.948Z,21.10
2019-03-24T23:39:59.341Z,22.33
2019-03-24T23:45:05.368Z,22.10
2019-03-24T23:50:12.419Z,21.10
2019-03-24T23:55:18.119Z,21.13
